sensor_id;sensor_type;location;lat;lon;timestamp;temperature;humidity
23507;DHT22;11930;53.076;18.250;2023-05-10T00:00:40;8.90;86.40
23507;DHT22;11930;53.076;18.250;2023-05-10T00:03:11;8.90;86.80
23507;DHT22;11930;53.076;18.250;2023-05-10T00:05:37;8.90;86.80
23507;DHT22;11930;53.076;18.250;2023-05-10T00:08:03;8.90;87.50
23507;DHT22;11930;53.076;18.250;2023-05-10T00:10:29;8.90;88.90
23507;DHT22;11930;53.076;18.250;2023-05-10T00:12:55;8.90;88.10
23507;DHT22;11930;53.076;18.250;2023-05-10T00:15:21;8.90;88.10
23507;DHT22;11930;53.076;18.250;2023-05-10T00:17:47;8.90;88.10
23507;DHT22;11930;53.076;18.250;2023-05-10T00:20:13;8.90;88.10
23507;DHT22;11930;53.076;18.250;2023-05-10T00:22:39;8.90;88.60
23507;DHT22;11930;53.076;18.250;2023-05-10T00:25:06;8.80;88.70
23507;DHT22;11930;53.076;18.250;2023-05-10T00:27:32;8.80;89.30
23507;DHT22;11930;53.076;18.250;2023-05-10T00:29:58;8.80;90.20
23507;DHT22;11930;53.076;18.250;2023-05-10T00:32:24;8.80;90.20
23507;DHT22;11930;53.076;18.250;2023-05-10T00:34:50;8.70;90.50
23507;DHT22;11930;53.076;18.250;2023-05-10T00:37:16;8.60;91.10
23507;DHT22;11930;53.076;18.250;2023-05-10T00:39:42;8.60;91.30
23507;DHT22;11930;53.076;18.250;2023-05-10T00:42:08;8.50;91.70
23507;DHT22;11930;53.076;18.250;2023-05-10T00:44:34;8.50;91.40
23507;DHT22;11930;53.076;18.250;2023-05-10T00:47:00;8.50;91.90
23507;DHT22;11930;53.076;18.250;2023-05-10T00:49:26;8.50;91.70
23507;DHT22;11930;53.076;18.250;2023-05-10T00:51:53;8.50;91.80
23507;DHT22;11930;53.076;18.250;2023-05-10T00:54:20;8.50;92.50
23507;DHT22;11930;53.076;18.250;2023-05-10T00:56:46;8.40;92.40
23507;DHT22;11930;53.076;18.250;2023-05-10T00:59:15;8.40;92.20
23507;DHT22;11930;53.076;18.250;2023-05-10T01:01:43;8.30;92.90
23507;DHT22;11930;53.076;18.250;2023-05-10T01:04:12;8.30;93.20
23507;DHT22;11930;53.076;18.250;2023-05-10T01:06:40;8.20;93.60
23507;DHT22;11930;53.076;18.250;2023-05-10T01:09:06;8.20;94.30
23507;DHT22;11930;53.076;18.250;2023-05-10T01:11:37;8.10;94.80
23507;DHT22;11930;53.076;18.250;2023-05-10T01:14:03;8.00;95.20
23507;DHT22;11930;53.076;18.250;2023-05-10T01:16:36;7.90;96.10
23507;DHT22;11930;53.076;18.250;2023-05-10T01:19:05;7.80;96.70
23507;DHT22;11930;53.076;18.250;2023-05-10T01:29:47;7.60;98.90
23507;DHT22;11930;53.076;18.250;2023-05-10T01:32:20;7.50;99.40
23507;DHT22;11930;53.076;18.250;2023-05-10T01:37:41;7.50;99.90
23507;DHT22;11930;53.076;18.250;2023-05-10T01:40:23;7.40;99.90
23507;DHT22;11930;53.076;18.250;2023-05-10T01:42:56;7.40;99.90
23507;DHT22;11930;53.076;18.250;2023-05-10T01:46:24;7.30;99.90
23507;DHT22;11930;53.076;18.250;2023-05-10T01:48:47;7.30;99.90
23507;DHT22;11930;53.076;18.250;2023-05-10T01:51:19;7.20;99.90
23507;DHT22;11930;53.076;18.250;2023-05-10T01:53:48;7.20;99.90
23507;DHT22;11930;53.076;18.250;2023-05-10T01:56:16;7.20;99.90
23507;DHT22;11930;53.076;18.250;2023-05-10T01:58:44;7.20;99.90
23507;DHT22;11930;53.076;18.250;2023-05-10T02:01:12;7.20;99.90
23507;DHT22;11930;53.076;18.250;2023-05-10T02:03:40;7.20;99.90
23507;DHT22;11930;53.076;18.250;2023-05-10T02:06:09;7.10;99.90
23507;DHT22;11930;53.076;18.250;2023-05-10T02:08:36;7.10;99.90
23507;DHT22;11930;53.076;18.250;2023-05-10T02:11:03;7.00;99.90
23507;DHT22;11930;53.076;18.250;2023-05-10T02:13:34;7.00;99.90
23507;DHT22;11930;53.076;18.250;2023-05-10T02:16:03;6.90;99.90
23507;DHT22;11930;53.076;18.250;2023-05-10T02:18:33;6.90;99.90
23507;DHT22;11930;53.076;18.250;2023-05-10T02:21:02;6.90;99.90
23507;DHT22;11930;53.076;18.250;2023-05-10T02:23:29;6.80;99.90
23507;DHT22;11930;53.076;18.250;2023-05-10T02:25:56;6.80;99.90
23507;DHT22;11930;53.076;18.250;2023-05-10T02:28:24;6.70;99.90
23507;DHT22;11930;53.076;18.250;2023-05-10T02:30:51;6.70;99.90
23507;DHT22;11930;53.076;18.250;2023-05-10T02:33:19;6.60;99.90
23507;DHT22;11930;53.076;18.250;2023-05-10T02:35:46;6.50;99.90
23507;DHT22;11930;53.076;18.250;2023-05-10T02:38:14;6.60;99.90
23507;DHT22;11930;53.076;18.250;2023-05-10T02:40:41;6.50;99.90
23507;DHT22;11930;53.076;18.250;2023-05-10T02:43:12;6.50;99.90
23507;DHT22;11930;53.076;18.250;2023-05-10T02:45:40;6.50;99.90
23507;DHT22;11930;53.076;18.250;2023-05-10T02:48:09;6.40;99.90
23507;DHT22;11930;53.076;18.250;2023-05-10T02:50:36;6.40;99.90
23507;DHT22;11930;53.076;18.250;2023-05-10T02:53:09;6.40;99.90
23507;DHT22;11930;53.076;18.250;2023-05-10T02:55:38;6.40;99.90
23507;DHT22;11930;53.076;18.250;2023-05-10T02:58:06;6.40;99.90
23507;DHT22;11930;53.076;18.250;2023-05-10T03:00:32;6.40;99.90
23507;DHT22;11930;53.076;18.250;2023-05-10T03:02:58;6.30;99.90
23507;DHT22;11930;53.076;18.250;2023-05-10T03:05:25;6.30;99.90
23507;DHT22;11930;53.076;18.250;2023-05-10T03:07:52;6.30;99.90
23507;DHT22;11930;53.076;18.250;2023-05-10T03:10:18;6.20;99.90
23507;DHT22;11930;53.076;18.250;2023-05-10T03:18:03;6.30;99.90
23507;DHT22;11930;53.076;18.250;2023-05-10T03:20:38;6.30;99.90
23507;DHT22;11930;53.076;18.250;2023-05-10T03:23:26;6.30;99.90
23507;DHT22;11930;53.076;18.250;2023-05-10T03:25:53;6.40;99.90
23507;DHT22;11930;53.076;18.250;2023-05-10T03:28:21;6.30;99.90
23507;DHT22;11930;53.076;18.250;2023-05-10T03:30:47;6.40;99.90
23507;DHT22;11930;53.076;18.250;2023-05-10T03:33:15;6.50;99.90
23507;DHT22;11930;53.076;18.250;2023-05-10T03:35:44;6.50;99.90
23507;DHT22;11930;53.076;18.250;2023-05-10T03:38:12;6.50;99.90
23507;DHT22;11930;53.076;18.250;2023-05-10T03:40:39;6.60;99.90
23507;DHT22;11930;53.076;18.250;2023-05-10T03:43:05;6.70;99.90
23507;DHT22;11930;53.076;18.250;2023-05-10T03:45:31;7.00;99.90
23507;DHT22;11930;53.076;18.250;2023-05-10T03:47:58;7.50;99.90
23507;DHT22;11930;53.076;18.250;2023-05-10T03:50:24;7.90;99.90
23507;DHT22;11930;53.076;18.250;2023-05-10T03:52:50;8.40;99.90
23507;DHT22;11930;53.076;18.250;2023-05-10T03:55:16;8.70;99.90
23507;DHT22;11930;53.076;18.250;2023-05-10T03:57:43;9.10;99.30
23507;DHT22;11930;53.076;18.250;2023-05-10T04:00:09;9.30;97.50
23507;DHT22;11930;53.076;18.250;2023-05-10T04:02:42;9.50;95.50
23507;DHT22;11930;53.076;18.250;2023-05-10T04:05:11;9.80;94.10
23507;DHT22;11930;53.076;18.250;2023-05-10T04:07:38;9.90;93.00
23507;DHT22;11930;53.076;18.250;2023-05-10T04:10:04;10.10;92.10
23507;DHT22;11930;53.076;18.250;2023-05-10T04:12:30;10.20;91.50
23507;DHT22;11930;53.076;18.250;2023-05-10T04:14:56;10.30;90.40
23507;DHT22;11930;53.076;18.250;2023-05-10T04:17:23;10.40;89.60
23507;DHT22;11930;53.076;18.250;2023-05-10T04:19:49;10.50;88.40
23507;DHT22;11930;53.076;18.250;2023-05-10T04:22:15;10.60;87.70
23507;DHT22;11930;53.076;18.250;2023-05-10T04:24:41;10.70;85.60
23507;DHT22;11930;53.076;18.250;2023-05-10T04:27:07;10.70;86.20
23507;DHT22;11930;53.076;18.250;2023-05-10T04:29:33;10.70;85.50
23507;DHT22;11930;53.076;18.250;2023-05-10T04:31:59;10.80;84.60
23507;DHT22;11930;53.076;18.250;2023-05-10T04:34:25;10.80;84.00
23507;DHT22;11930;53.076;18.250;2023-05-10T04:36:51;10.80;83.90
23507;DHT22;11930;53.076;18.250;2023-05-10T04:39:17;11.00;83.80
23507;DHT22;11930;53.076;18.250;2023-05-10T04:41:43;11.10;82.30
23507;DHT22;11930;53.076;18.250;2023-05-10T04:44:09;11.20;82.00
23507;DHT22;11930;53.076;18.250;2023-05-10T04:46:35;11.50;80.10
23507;DHT22;11930;53.076;18.250;2023-05-10T04:49:01;11.70;78.30
23507;DHT22;11930;53.076;18.250;2023-05-10T04:57:04;11.90;75.30
23507;DHT22;11930;53.076;18.250;2023-05-10T04:59:30;11.90;75.20
23507;DHT22;11930;53.076;18.250;2023-05-10T05:01:56;12.00;73.80
23507;DHT22;11930;53.076;18.250;2023-05-10T05:04:23;12.10;73.20
23507;DHT22;11930;53.076;18.250;2023-05-10T05:06:49;12.30;73.60
23507;DHT22;11930;53.076;18.250;2023-05-10T05:09:15;12.50;71.40
23507;DHT22;11930;53.076;18.250;2023-05-10T05:11:41;12.50;70.60
23507;DHT22;11930;53.076;18.250;2023-05-10T05:14:08;12.70;69.90
23507;DHT22;11930;53.076;18.250;2023-05-10T05:16:33;12.80;69.50
23507;DHT22;11930;53.076;18.250;2023-05-10T05:19:00;13.00;68.90
23507;DHT22;11930;53.076;18.250;2023-05-10T05:21:26;13.10;68.30
23507;DHT22;11930;53.076;18.250;2023-05-10T05:23:52;13.20;67.20
23507;DHT22;11930;53.076;18.250;2023-05-10T05:26:18;13.40;66.40
23507;DHT22;11930;53.076;18.250;2023-05-10T05:28:44;13.50;65.20
23507;DHT22;11930;53.076;18.250;2023-05-10T05:31:10;13.60;65.50
23507;DHT22;11930;53.076;18.250;2023-05-10T05:33:37;13.50;65.00
23507;DHT22;11930;53.076;18.250;2023-05-10T05:36:04;13.50;65.00
23507;DHT22;11930;53.076;18.250;2023-05-10T05:38:31;13.60;64.60
23507;DHT22;11930;53.076;18.250;2023-05-10T05:40:57;13.80;62.80
23507;DHT22;11930;53.076;18.250;2023-05-10T05:43:24;13.80;63.10
23507;DHT22;11930;53.076;18.250;2023-05-10T05:45:52;13.80;63.30
23507;DHT22;11930;53.076;18.250;2023-05-10T05:48:18;13.80;61.90
23507;DHT22;11930;53.076;18.250;2023-05-10T05:50:44;13.80;63.20
23507;DHT22;11930;53.076;18.250;2023-05-10T05:53:11;13.80;61.70
23507;DHT22;11930;53.076;18.250;2023-05-10T05:55:37;13.80;61.50
23507;DHT22;11930;53.076;18.250;2023-05-10T05:58:03;13.80;61.80
23507;DHT22;11930;53.076;18.250;2023-05-10T06:00:29;13.80;61.90
23507;DHT22;11930;53.076;18.250;2023-05-10T06:02:55;13.80;61.20
23507;DHT22;11930;53.076;18.250;2023-05-10T06:05:21;13.80;61.70
23507;DHT22;11930;53.076;18.250;2023-05-10T06:07:47;13.80;61.70
23507;DHT22;11930;53.076;18.250;2023-05-10T06:10:13;13.90;61.20
23507;DHT22;11930;53.076;18.250;2023-05-10T06:12:39;13.90;59.80
23507;DHT22;11930;53.076;18.250;2023-05-10T06:15:05;14.00;59.70
23507;DHT22;11930;53.076;18.250;2023-05-10T06:17:31;14.00;59.10
23507;DHT22;11930;53.076;18.250;2023-05-10T06:19:57;14.10;58.60
23507;DHT22;11930;53.076;18.250;2023-05-10T06:22:23;14.20;58.80
23507;DHT22;11930;53.076;18.250;2023-05-10T06:24:49;14.30;58.00
23507;DHT22;11930;53.076;18.250;2023-05-10T06:27:15;14.30;58.10
23507;DHT22;11930;53.076;18.250;2023-05-10T06:29:41;14.30;57.50
23507;DHT22;11930;53.076;18.250;2023-05-10T06:32:07;14.50;57.40
23507;DHT22;11930;53.076;18.250;2023-05-10T06:34:33;14.50;56.70
23507;DHT22;11930;53.076;18.250;2023-05-10T06:37:00;14.60;57.40
23507;DHT22;11930;53.076;18.250;2023-05-10T06:39:26;14.70;56.70
23507;DHT22;11930;53.076;18.250;2023-05-10T06:41:51;14.80;56.40
23507;DHT22;11930;53.076;18.250;2023-05-10T06:44:19;14.90;56.30
23507;DHT22;11930;53.076;18.250;2023-05-10T06:46:44;14.90;55.80
23507;DHT22;11930;53.076;18.250;2023-05-10T06:49:11;15.00;55.50
23507;DHT22;11930;53.076;18.250;2023-05-10T06:51:36;15.10;54.90
23507;DHT22;11930;53.076;18.250;2023-05-10T06:54:03;15.20;55.70
23507;DHT22;11930;53.076;18.250;2023-05-10T06:56:28;15.30;55.60
23507;DHT22;11930;53.076;18.250;2023-05-10T06:58:54;15.40;55.60
23507;DHT22;11930;53.076;18.250;2023-05-10T07:01:21;15.40;54.40
23507;DHT22;11930;53.076;18.250;2023-05-10T07:03:47;15.60;54.70
23507;DHT22;11930;53.076;18.250;2023-05-10T07:06:13;15.60;53.00
23507;DHT22;11930;53.076;18.250;2023-05-10T07:08:39;15.60;54.00
23507;DHT22;11930;53.076;18.250;2023-05-10T07:11:06;15.80;55.00
23507;DHT22;11930;53.076;18.250;2023-05-10T07:13:33;16.10;56.10
23507;DHT22;11930;53.076;18.250;2023-05-10T07:16:00;16.50;53.50
23507;DHT22;11930;53.076;18.250;2023-05-10T07:18:28;16.80;51.40
23507;DHT22;11930;53.076;18.250;2023-05-10T07:20:54;16.90;52.30
23507;DHT22;11930;53.076;18.250;2023-05-10T07:23:20;17.20;50.90
23507;DHT22;11930;53.076;18.250;2023-05-10T07:25:48;17.20;51.10
23507;DHT22;11930;53.076;18.250;2023-05-10T07:28:15;17.20;49.60
23507;DHT22;11930;53.076;18.250;2023-05-10T07:30:42;17.10;49.30
23507;DHT22;11930;53.076;18.250;2023-05-10T07:33:09;17.10;50.80
23507;DHT22;11930;53.076;18.250;2023-05-10T07:35:35;17.10;48.80
23507;DHT22;11930;53.076;18.250;2023-05-10T07:38:01;17.10;48.80
23507;DHT22;11930;53.076;18.250;2023-05-10T07:40:28;17.00;49.10
23507;DHT22;11930;53.076;18.250;2023-05-10T07:42:54;17.00;49.70
23507;DHT22;11930;53.076;18.250;2023-05-10T07:45:20;17.10;48.80
23507;DHT22;11930;53.076;18.250;2023-05-10T07:47:46;17.20;47.70
23507;DHT22;11930;53.076;18.250;2023-05-10T07:50:12;17.30;48.60
23507;DHT22;11930;53.076;18.250;2023-05-10T07:52:38;17.30;47.40
23507;DHT22;11930;53.076;18.250;2023-05-10T07:55:05;17.20;48.50
23507;DHT22;11930;53.076;18.250;2023-05-10T07:57:31;17.40;48.00
23507;DHT22;11930;53.076;18.250;2023-05-10T07:59:57;17.50;48.40
23507;DHT22;11930;53.076;18.250;2023-05-10T08:02:23;17.70;48.40
23507;DHT22;11930;53.076;18.250;2023-05-10T08:04:48;17.90;46.70
23507;DHT22;11930;53.076;18.250;2023-05-10T08:07:15;18.10;46.40
23507;DHT22;11930;53.076;18.250;2023-05-10T08:09:40;18.20;46.90
23507;DHT22;11930;53.076;18.250;2023-05-10T08:12:06;18.30;46.70
23507;DHT22;11930;53.076;18.250;2023-05-10T08:14:32;18.30;44.90
23507;DHT22;11930;53.076;18.250;2023-05-10T08:16:58;18.20;46.90
23507;DHT22;11930;53.076;18.250;2023-05-10T08:19:24;18.30;46.10
23507;DHT22;11930;53.076;18.250;2023-05-10T08:21:50;18.40;44.60
23507;DHT22;11930;53.076;18.250;2023-05-10T08:24:16;18.40;44.60
23507;DHT22;11930;53.076;18.250;2023-05-10T08:26:42;18.40;45.40
23507;DHT22;11930;53.076;18.250;2023-05-10T08:29:08;18.60;45.40
23507;DHT22;11930;53.076;18.250;2023-05-10T08:31:35;19.00;45.10
23507;DHT22;11930;53.076;18.250;2023-05-10T08:34:00;19.10;45.60
23507;DHT22;11930;53.076;18.250;2023-05-10T08:36:27;19.30;44.60
23507;DHT22;11930;53.076;18.250;2023-05-10T08:38:53;19.40;43.30
23507;DHT22;11930;53.076;18.250;2023-05-10T08:41:21;19.40;44.00
23507;DHT22;11930;53.076;18.250;2023-05-10T08:43:50;19.50;41.60
23507;DHT22;11930;53.076;18.250;2023-05-10T08:46:18;19.40;42.20
23507;DHT22;11930;53.076;18.250;2023-05-10T08:48:45;19.20;43.30
23507;DHT22;11930;53.076;18.250;2023-05-10T08:51:19;18.90;43.10
23507;DHT22;11930;53.076;18.250;2023-05-10T08:53:45;18.60;43.20
23507;DHT22;11930;53.076;18.250;2023-05-10T08:56:12;18.60;44.00
23507;DHT22;11930;53.076;18.250;2023-05-10T08:58:38;18.70;43.00
23507;DHT22;11930;53.076;18.250;2023-05-10T09:01:07;18.80;53.90
23507;DHT22;11930;53.076;18.250;2023-05-10T09:03:34;19.20;62.10
23507;DHT22;11930;53.076;18.250;2023-05-10T09:06:01;19.30;63.50
23507;DHT22;11930;53.076;18.250;2023-05-10T09:08:27;19.00;57.50
23507;DHT22;11930;53.076;18.250;2023-05-10T09:10:56;19.30;42.90
23507;DHT22;11930;53.076;18.250;2023-05-10T09:13:23;19.40;42.20
23507;DHT22;11930;53.076;18.250;2023-05-10T09:15:49;19.30;41.40
23507;DHT22;11930;53.076;18.250;2023-05-10T09:18:16;19.40;43.70
23507;DHT22;11930;53.076;18.250;2023-05-10T09:20:42;19.30;42.30
23507;DHT22;11930;53.076;18.250;2023-05-10T09:23:08;19.00;42.30
23507;DHT22;11930;53.076;18.250;2023-05-10T09:25:34;18.80;43.60
23507;DHT22;11930;53.076;18.250;2023-05-10T09:28:01;18.80;43.30
23507;DHT22;11930;53.076;18.250;2023-05-10T09:30:30;19.00;44.20
23507;DHT22;11930;53.076;18.250;2023-05-10T09:32:58;18.90;41.80
23507;DHT22;11930;53.076;18.250;2023-05-10T09:35:26;18.90;44.20
23507;DHT22;11930;53.076;18.250;2023-05-10T09:37:54;19.00;44.30
23507;DHT22;11930;53.076;18.250;2023-05-10T09:40:23;18.90;43.10
23507;DHT22;11930;53.076;18.250;2023-05-10T09:45:27;18.70;43.20
23507;DHT22;11930;53.076;18.250;2023-05-10T09:47:54;18.50;43.90
23507;DHT22;11930;53.076;18.250;2023-05-10T09:50:20;18.40;44.20
23507;DHT22;11930;53.076;18.250;2023-05-10T09:52:50;18.30;45.10
23507;DHT22;11930;53.076;18.250;2023-05-10T09:55:19;18.40;45.50
23507;DHT22;11930;53.076;18.250;2023-05-10T09:57:46;18.40;44.50
23507;DHT22;11930;53.076;18.250;2023-05-10T10:00:19;18.40;44.20
23507;DHT22;11930;53.076;18.250;2023-05-10T10:02:55;18.40;43.30
23507;DHT22;11930;53.076;18.250;2023-05-10T10:05:32;18.40;44.50
23507;DHT22;11930;53.076;18.250;2023-05-10T10:07:59;18.50;44.70
23507;DHT22;11930;53.076;18.250;2023-05-10T10:10:26;18.50;44.50
23507;DHT22;11930;53.076;18.250;2023-05-10T10:12:53;18.60;44.50
23507;DHT22;11930;53.076;18.250;2023-05-10T10:15:23;18.70;46.60
23507;DHT22;11930;53.076;18.250;2023-05-10T10:17:51;18.80;45.00
23507;DHT22;11930;53.076;18.250;2023-05-10T10:20:18;18.70;45.60
23507;DHT22;11930;53.076;18.250;2023-05-10T10:22:44;18.70;45.40
23507;DHT22;11930;53.076;18.250;2023-05-10T10:25:15;18.60;46.70
23507;DHT22;11930;53.076;18.250;2023-05-10T10:33:10;18.60;45.70
23507;DHT22;11930;53.076;18.250;2023-05-10T10:35:39;18.50;44.10
23507;DHT22;11930;53.076;18.250;2023-05-10T10:38:08;18.50;44.60
23507;DHT22;11930;53.076;18.250;2023-05-10T10:40:34;18.60;45.70
23507;DHT22;11930;53.076;18.250;2023-05-10T10:43:26;18.50;46.30
23507;DHT22;11930;53.076;18.250;2023-05-10T10:49:08;18.80;46.30
23507;DHT22;11930;53.076;18.250;2023-05-10T10:51:38;18.80;45.70
23507;DHT22;11930;53.076;18.250;2023-05-10T10:54:11;18.80;45.60
23507;DHT22;11930;53.076;18.250;2023-05-10T10:56:37;18.90;45.50
23507;DHT22;11930;53.076;18.250;2023-05-10T10:59:03;19.10;44.20
23507;DHT22;11930;53.076;18.250;2023-05-10T11:01:35;18.90;44.10
23507;DHT22;11930;53.076;18.250;2023-05-10T11:06:34;18.90;45.50
23507;DHT22;11930;53.076;18.250;2023-05-10T11:09:08;18.50;45.20
23507;DHT22;11930;53.076;18.250;2023-05-10T11:11:36;18.80;44.60
23507;DHT22;11930;53.076;18.250;2023-05-10T11:14:06;18.40;44.60
23507;DHT22;11930;53.076;18.250;2023-05-10T11:16:43;17.70;47.90
23507;DHT22;11930;53.076;18.250;2023-05-10T11:19:14;18.80;50.50
23507;DHT22;11930;53.076;18.250;2023-05-10T11:24:31;18.60;44.10
23507;DHT22;11930;53.076;18.250;2023-05-10T11:26:57;18.40;47.10
23507;DHT22;11930;53.076;18.250;2023-05-10T11:29:23;18.60;46.00
23507;DHT22;11930;53.076;18.250;2023-05-10T11:31:52;18.60;45.30
23507;DHT22;11930;53.076;18.250;2023-05-10T11:34:28;18.50;43.40
23507;DHT22;11930;53.076;18.250;2023-05-10T11:36:56;18.30;44.10
23507;DHT22;11930;53.076;18.250;2023-05-10T11:39:30;18.50;44.20
23507;DHT22;11930;53.076;18.250;2023-05-10T11:41:57;18.50;44.60
23507;DHT22;11930;53.076;18.250;2023-05-10T11:44:24;18.60;44.40
23507;DHT22;11930;53.076;18.250;2023-05-10T11:46:54;18.60;44.50
23507;DHT22;11930;53.076;18.250;2023-05-10T11:49:25;18.60;43.20
23507;DHT22;11930;53.076;18.250;2023-05-10T11:51:51;18.60;43.30
23507;DHT22;11930;53.076;18.250;2023-05-10T11:54:17;18.50;44.50
23507;DHT22;11930;53.076;18.250;2023-05-10T11:56:44;18.50;44.40
23507;DHT22;11930;53.076;18.250;2023-05-10T11:59:13;18.50;44.40
23507;DHT22;11930;53.076;18.250;2023-05-10T12:01:40;18.50;43.40
23507;DHT22;11930;53.076;18.250;2023-05-10T12:04:06;18.60;44.50
23507;DHT22;11930;53.076;18.250;2023-05-10T12:06:35;18.60;44.10
23507;DHT22;11930;53.076;18.250;2023-05-10T12:09:06;18.70;44.70
23507;DHT22;11930;53.076;18.250;2023-05-10T12:11:39;18.70;43.50
23507;DHT22;11930;53.076;18.250;2023-05-10T12:14:06;18.70;44.60
23507;DHT22;11930;53.076;18.250;2023-05-10T12:16:32;18.80;44.50
23507;DHT22;11930;53.076;18.250;2023-05-10T12:18:59;18.80;43.20
23507;DHT22;11930;53.076;18.250;2023-05-10T12:21:28;18.80;42.70
23507;DHT22;11930;53.076;18.250;2023-05-10T12:23:58;18.90;42.30
23507;DHT22;11930;53.076;18.250;2023-05-10T12:26:25;18.90;40.80
23507;DHT22;11930;53.076;18.250;2023-05-10T12:28:54;18.80;42.90
23507;DHT22;11930;53.076;18.250;2023-05-10T12:31:21;18.80;43.50
23507;DHT22;11930;53.076;18.250;2023-05-10T12:33:47;18.80;41.80
23507;DHT22;11930;53.076;18.250;2023-05-10T12:36:16;18.80;41.50
23507;DHT22;11930;53.076;18.250;2023-05-10T12:38:44;18.80;42.40
23507;DHT22;11930;53.076;18.250;2023-05-10T12:41:14;18.80;41.50
23507;DHT22;11930;53.076;18.250;2023-05-10T12:43:40;18.90;41.80
23507;DHT22;11930;53.076;18.250;2023-05-10T12:46:10;18.90;41.80
23507;DHT22;11930;53.076;18.250;2023-05-10T12:48:38;18.90;41.10
23507;DHT22;11930;53.076;18.250;2023-05-10T12:51:05;18.80;41.50
23507;DHT22;11930;53.076;18.250;2023-05-10T12:53:31;18.80;41.90
23507;DHT22;11930;53.076;18.250;2023-05-10T12:55:57;19.10;47.60
23507;DHT22;11930;53.076;18.250;2023-05-10T12:58:23;18.90;54.10
23507;DHT22;11930;53.076;18.250;2023-05-10T13:00:50;18.90;42.00
23507;DHT22;11930;53.076;18.250;2023-05-10T13:03:17;18.90;42.50
23507;DHT22;11930;53.076;18.250;2023-05-10T13:05:43;18.80;43.60
23507;DHT22;11930;53.076;18.250;2023-05-10T13:08:10;18.90;42.80
23507;DHT22;11930;53.076;18.250;2023-05-10T13:10:36;18.90;42.50
23507;DHT22;11930;53.076;18.250;2023-05-10T13:13:02;18.90;42.00
23507;DHT22;11930;53.076;18.250;2023-05-10T13:15:28;18.80;42.40
23507;DHT22;11930;53.076;18.250;2023-05-10T13:17:54;18.80;43.50
23507;DHT22;11930;53.076;18.250;2023-05-10T13:20:20;18.80;42.30
23507;DHT22;11930;53.076;18.250;2023-05-10T13:22:46;18.70;41.90
23507;DHT22;11930;53.076;18.250;2023-05-10T13:27:39;18.10;49.70
23507;DHT22;11930;53.076;18.250;2023-05-10T13:30:09;19.00;42.90
23507;DHT22;11930;53.076;18.250;2023-05-10T13:32:37;18.80;43.20
23507;DHT22;11930;53.076;18.250;2023-05-10T13:35:04;18.80;44.20
23507;DHT22;11930;53.076;18.250;2023-05-10T13:37:31;18.90;44.20
23507;DHT22;11930;53.076;18.250;2023-05-10T13:39:57;18.90;43.00
23507;DHT22;11930;53.076;18.250;2023-05-10T13:42:23;19.00;44.20
23507;DHT22;11930;53.076;18.250;2023-05-10T13:44:50;19.10;44.20
23507;DHT22;11930;53.076;18.250;2023-05-10T13:47:16;19.10;43.40
23507;DHT22;11930;53.076;18.250;2023-05-10T13:49:43;19.00;43.90
23507;DHT22;11930;53.076;18.250;2023-05-10T13:52:08;19.00;44.60
23507;DHT22;11930;53.076;18.250;2023-05-10T13:54:36;18.90;45.40
23507;DHT22;11930;53.076;18.250;2023-05-10T13:57:02;18.90;43.80
23507;DHT22;11930;53.076;18.250;2023-05-10T13:59:29;18.90;44.40
23507;DHT22;11930;53.076;18.250;2023-05-10T14:01:57;18.90;44.30
23507;DHT22;11930;53.076;18.250;2023-05-10T14:04:24;18.90;44.70
23507;DHT22;11930;53.076;18.250;2023-05-10T14:06:50;18.90;44.10
23507;DHT22;11930;53.076;18.250;2023-05-10T14:09:16;18.90;43.90
23507;DHT22;11930;53.076;18.250;2023-05-10T14:11:42;18.80;44.70
23507;DHT22;11930;53.076;18.250;2023-05-10T14:14:09;18.80;42.70
23507;DHT22;11930;53.076;18.250;2023-05-10T14:16:35;18.80;44.00
23507;DHT22;11930;53.076;18.250;2023-05-10T14:19:01;18.70;44.30
23507;DHT22;11930;53.076;18.250;2023-05-10T14:21:27;18.80;44.50
23507;DHT22;11930;53.076;18.250;2023-05-10T14:23:56;18.70;44.50
23507;DHT22;11930;53.076;18.250;2023-05-10T14:26:22;18.70;45.20
23507;DHT22;11930;53.076;18.250;2023-05-10T14:28:49;18.80;44.80
23507;DHT22;11930;53.076;18.250;2023-05-10T14:31:15;18.80;45.20
23507;DHT22;11930;53.076;18.250;2023-05-10T14:33:42;18.80;45.40
23507;DHT22;11930;53.076;18.250;2023-05-10T14:36:08;18.80;44.80
23507;DHT22;11930;53.076;18.250;2023-05-10T14:38:35;18.80;45.50
23507;DHT22;11930;53.076;18.250;2023-05-10T14:41:01;18.80;44.90
23507;DHT22;11930;53.076;18.250;2023-05-10T14:43:27;18.90;45.00
23507;DHT22;11930;53.076;18.250;2023-05-10T14:48:20;18.80;44.80
23507;DHT22;11930;53.076;18.250;2023-05-10T14:50:46;18.90;45.10
23507;DHT22;11930;53.076;18.250;2023-05-10T14:53:13;18.80;44.10
23507;DHT22;11930;53.076;18.250;2023-05-10T15:02:58;18.70;44.90
23507;DHT22;11930;53.076;18.250;2023-05-10T15:05:24;18.70;45.00
23507;DHT22;11930;53.076;18.250;2023-05-10T15:07:50;18.70;45.40
23507;DHT22;11930;53.076;18.250;2023-05-10T15:10:17;18.70;45.40
23507;DHT22;11930;53.076;18.250;2023-05-10T15:15:10;18.90;45.00
23507;DHT22;11930;53.076;18.250;2023-05-10T15:17:36;18.60;48.70
23507;DHT22;11930;53.076;18.250;2023-05-10T15:20:02;18.90;44.30
23507;DHT22;11930;53.076;18.250;2023-05-10T15:22:29;18.70;47.30
23507;DHT22;11930;53.076;18.250;2023-05-10T15:25:00;19.20;45.60
23507;DHT22;11930;53.076;18.250;2023-05-10T15:29:53;19.20;53.10
23507;DHT22;11930;53.076;18.250;2023-05-10T15:39:38;18.80;54.40
23507;DHT22;11930;53.076;18.250;2023-05-10T15:42:04;18.90;55.30
23507;DHT22;11930;53.076;18.250;2023-05-10T15:44:30;18.90;55.30
23507;DHT22;11930;53.076;18.250;2023-05-10T15:49:22;19.00;49.30
23507;DHT22;11930;53.076;18.250;2023-05-10T15:51:48;18.50;59.10
23507;DHT22;11930;53.076;18.250;2023-05-10T15:56:41;18.40;59.20
23507;DHT22;11930;53.076;18.250;2023-05-10T16:01:35;18.60;44.50
23507;DHT22;11930;53.076;18.250;2023-05-10T16:06:28;18.30;56.50
23507;DHT22;11930;53.076;18.250;2023-05-10T16:11:20;18.50;49.50
23507;DHT22;11930;53.076;18.250;2023-05-10T16:33:17;18.60;44.50
23507;DHT22;11930;53.076;18.250;2023-05-10T16:35:43;18.60;45.00
23507;DHT22;11930;53.076;18.250;2023-05-10T16:38:09;18.50;45.00
23507;DHT22;11930;53.076;18.250;2023-05-10T16:40:36;18.50;45.10
23507;DHT22;11930;53.076;18.250;2023-05-10T16:43:02;18.40;45.40
23507;DHT22;11930;53.076;18.250;2023-05-10T16:45:30;18.40;45.60
23507;DHT22;11930;53.076;18.250;2023-05-10T16:47:56;18.30;45.20
23507;DHT22;11930;53.076;18.250;2023-05-10T16:50:22;18.30;45.50
23507;DHT22;11930;53.076;18.250;2023-05-10T16:52:51;18.30;46.00
23507;DHT22;11930;53.076;18.250;2023-05-10T16:55:20;18.20;45.40